createdAt,value
2023-12-04T04:22:54.685Z,100.00
2023-12-04T04:25:57.314Z,100.00
2023-12-04T04:28:59.754Z,100.00
2023-12-04T04:32:02.303Z,100.00
2023-12-04T04:35:04.864Z,100.00
2023-12-04T04:38:07.335Z,100.00
2023-12-04T04:41:17.185Z,100.00
2023-12-04T04:44:19.720Z,100.00
2023-12-04T04:47:21.992Z,100.00
2023-12-04T04:50:24.448Z,100.00
2023-12-04T04:53:26.588Z,100.00
2023-12-04T04:56:30.921Z,100.00
2023-12-04T04:59:33.535Z,100.00
2023-12-04T05:02:36.629Z,100.00
2023-12-04T05:05:38.782Z,100.00
2023-12-04T05:08:41.247Z,100.00
2023-12-04T05:11:43.458Z,100.00
2023-12-04T05:14:45.889Z,100.00
2023-12-04T05:17:48.407Z,100.00
2023-12-04T05:20:50.996Z,100.00
2023-12-04T05:23:53.176Z,100.00
2023-12-04T05:26:56.253Z,100.00
2023-12-04T05:29:58.521Z,100.00
2023-12-04T05:33:01.224Z,100.00
2023-12-04T05:36:03.972Z,100.00
2023-12-04T05:39:06.506Z,100.00
2023-12-04T05:42:09.455Z,100.00
2023-12-04T05:45:11.998Z,100.00
2023-12-04T05:48:14.165Z,100.00
2023-12-04T05:51:16.738Z,100.00
2023-12-04T05:54:18.949Z,100.00
2023-12-04T05:57:21.386Z,100.00
2023-12-04T06:00:25.977Z,100.00
2023-12-04T06:03:29.987Z,100.00
2023-12-04T06:06:32.165Z,100.00
2023-12-04T06:09:34.857Z,100.00
2023-12-04T06:12:37.179Z,100.00
2023-12-04T06:15:39.679Z,100.00
2023-12-04T06:18:41.899Z,100.00
2023-12-04T06:21:44.445Z,100.00
2023-12-04T06:24:47.366Z,100.00
2023-12-04T06:27:50.366Z,100.00
2023-12-04T06:30:52.905Z,100.00
2023-12-04T06:33:55.748Z,100.00
2023-12-04T06:36:58.292Z,100.00
2023-12-04T06:40:03.747Z,100.00
2023-12-04T06:43:06.452Z,100.00
2023-12-04T06:46:09.759Z,100.00
2023-12-04T06:49:15.353Z,100.00
2023-12-04T06:52:18.021Z,100.00
2023-12-04T06:55:20.672Z,100.00
2023-12-04T06:58:23.226Z,100.00
2023-12-04T07:01:25.590Z,100.00
2023-12-04T07:04:28.066Z,100.00
2023-12-04T07:07:30.237Z,100.00
2023-12-04T07:10:35.259Z,100.00
2023-12-04T07:13:37.842Z,100.00
2023-12-04T07:16:42.541Z,100.00
2023-12-04T07:19:44.884Z,100.00
2023-12-04T07:22:47.809Z,100.00
2023-12-04T07:25:52.876Z,100.00
2023-12-04T07:28:55.919Z,100.00
2023-12-04T07:31:59.867Z,100.00
2023-12-04T07:35:02.432Z,100.00
2023-12-04T07:38:04.648Z,100.00
2023-12-04T07:41:07.599Z,100.00
2023-12-04T07:44:09.847Z,100.00
2023-12-04T07:47:12.292Z,100.00
2023-12-04T07:50:14.670Z,100.00
2023-12-04T07:53:17.177Z,100.00
2023-12-04T07:56:19.682Z,100.00
2023-12-04T07:59:22.322Z,100.00
2023-12-04T08:02:24.566Z,100.00
2023-12-04T08:05:28.545Z,100.00
2023-12-04T08:08:32.329Z,100.00
2023-12-04T08:11:35.497Z,93.80
2023-12-04T08:14:37.941Z,83.16
2023-12-04T08:17:40.767Z,80.29
2023-12-04T08:20:43.558Z,74.58
2023-12-04T08:23:46.154Z,76.01
2023-12-04T08:26:48.544Z,78.78
2023-12-04T08:29:51.460Z,78.30
2023-12-04T08:32:54.175Z,79.69
2023-12-04T08:35:56.755Z,79.80
2023-12-04T08:38:59.003Z,85.87
2023-12-04T08:42:04.952Z,86.65
2023-12-04T08:45:10.546Z,78.66
2023-12-04T08:48:13.075Z,77.32
2023-12-04T08:51:18.620Z,79.52
2023-12-04T08:54:21.132Z,78.54
2023-12-04T08:57:23.535Z,71.87
2023-12-04T09:00:26.153Z,71.16
2023-12-04T09:03:32.335Z,74.93
2023-12-04T09:09:40.653Z,75.88
2023-12-04T09:12:43.176Z,73.73
2023-12-04T09:15:45.913Z,71.93
2023-12-04T09:18:48.532Z,72.14
2023-12-04T09:21:59.215Z,68.10
2023-12-04T09:25:11.009Z,69.42
2023-12-04T09:28:13.224Z,71.01
2023-12-04T09:31:15.849Z,67.88
2023-12-04T09:34:19.097Z,66.00
2023-12-04T09:37:21.569Z,65.13
2023-12-04T09:40:24.602Z,64.50
2023-12-04T09:43:30.548Z,65.22
2023-12-04T09:46:35.400Z,63.79
2023-12-04T09:49:39.306Z,59.93
2023-12-04T09:52:41.754Z,59.50
2023-12-04T09:55:44.437Z,61.63
2023-12-04T09:58:50.966Z,59.94
2023-12-04T10:01:54.064Z,59.23
2023-12-04T10:04:56.905Z,58.24
2023-12-04T10:07:59.126Z,56.87
2023-12-04T10:11:02.288Z,54.19
2023-12-04T10:14:04.795Z,57.38
2023-12-04T10:17:19.037Z,60.83
2023-12-04T10:20:22.929Z,62.93
2023-12-04T10:23:43.457Z,63.37
2023-12-04T10:26:52.641Z,64.57
2023-12-04T10:29:57.722Z,63.15
2023-12-04T10:33:02.706Z,63.73
2023-12-04T10:36:12.342Z,63.42
2023-12-04T10:39:14.605Z,59.07
2023-12-04T10:42:33.719Z,56.81
2023-12-04T10:45:37.683Z,52.73
2023-12-04T10:48:40.765Z,52.55
2023-12-04T10:51:43.197Z,52.11
2023-12-04T10:54:46.835Z,49.98
2023-12-04T10:57:52.907Z,46.61
2023-12-04T11:00:57.572Z,43.68
2023-12-04T11:04:01.287Z,42.67
2023-12-04T11:07:06.504Z,41.41
2023-12-04T11:10:11.787Z,42.02
2023-12-04T11:13:19.382Z,41.13
2023-12-04T11:16:30.355Z,33.56
2023-12-04T11:19:47.830Z,27.34
2023-12-04T11:22:51.672Z,24.73
2023-12-04T11:25:55.120Z,24.91
2023-12-04T11:28:58.675Z,24.31
2023-12-04T11:32:01.222Z,26.61
2023-12-04T11:35:04.889Z,32.74
2023-12-04T11:38:10.716Z,35.41
2023-12-04T11:41:18.628Z,30.61
2023-12-04T11:44:26.521Z,25.31
2023-12-04T11:47:32.028Z,23.14
2023-12-04T11:50:34.890Z,22.56
2023-12-04T11:53:41.085Z,24.42
2023-12-04T11:57:11.602Z,26.51
2023-12-04T12:00:20.255Z,28.25
2023-12-04T12:03:23.903Z,28.59
2023-12-04T12:06:27.150Z,30.23
2023-12-04T12:09:30.440Z,32.63
2023-12-04T12:12:33.789Z,39.93
2023-12-04T12:15:36.653Z,47.86
2023-12-04T12:18:40.666Z,51.98
2023-12-04T12:21:43.365Z,56.73
2023-12-04T12:24:46.086Z,60.07
2023-12-04T12:27:48.730Z,61.91
2023-12-04T12:30:51.112Z,62.97
2023-12-04T12:33:53.890Z,63.71
2023-12-04T12:36:57.000Z,63.61
2023-12-04T12:39:59.667Z,64.61
2023-12-04T12:43:09.764Z,65.19
2023-12-04T12:46:12.590Z,66.81
2023-12-04T12:49:25.546Z,67.21
2023-12-04T12:52:34.869Z,67.56
2023-12-04T12:55:42.220Z,69.00
2023-12-04T12:58:44.844Z,69.78
2023-12-04T13:01:49.297Z,71.07
2023-12-04T13:04:51.984Z,72.52
2023-12-04T13:07:54.332Z,72.01
2023-12-04T13:10:57.021Z,72.89
2023-12-04T13:13:59.178Z,75.21
2023-12-04T13:17:02.558Z,76.59
2023-12-04T13:20:06.025Z,77.54
2023-12-04T13:23:08.566Z,78.85
2023-12-04T13:26:11.687Z,80.51
2023-12-04T13:29:18.508Z,82.62
2023-12-04T13:32:21.517Z,83.99
2023-12-04T13:35:24.337Z,84.08
2023-12-04T13:38:30.459Z,85.74
2023-12-04T13:41:56.231Z,87.52
2023-12-04T13:44:58.924Z,87.12
2023-12-04T13:48:01.494Z,88.05
2023-12-04T13:51:04.114Z,89.30
2023-12-04T13:54:20.786Z,89.93
2023-12-04T13:57:28.919Z,89.90
2023-12-04T14:00:31.492Z,90.38
2023-12-04T14:03:35.109Z,91.53
2023-12-04T14:06:37.800Z,91.63
2023-12-04T14:09:41.101Z,91.77
2023-12-04T14:12:43.334Z,92.78
2023-12-04T14:15:45.938Z,93.40
2023-12-04T14:18:48.387Z,92.31
2023-12-04T14:21:50.974Z,92.85
2023-12-04T14:24:53.388Z,94.44
2023-12-04T14:27:56.011Z,95.49
2023-12-04T14:30:58.218Z,97.68
2023-12-04T14:34:00.856Z,97.59
2023-12-04T14:37:03.283Z,99.26
2023-12-04T14:40:06.906Z,99.57
2023-12-04T14:43:10.950Z,99.54
2023-12-04T14:46:14.079Z,99.24
2023-12-04T14:49:16.913Z,98.36
2023-12-04T14:52:20.113Z,99.43
2023-12-04T14:55:25.316Z,99.41
2023-12-04T14:58:43.104Z,99.06
2023-12-04T15:02:03.995Z,99.36
2023-12-04T15:05:10.238Z,99.60
2023-12-04T15:08:24.667Z,100.00
2023-12-04T15:11:56.179Z,100.00
2023-12-04T15:15:16.334Z,100.00
2023-12-04T15:18:35.774Z,100.00
2023-12-04T15:21:38.518Z,100.00
2023-12-04T15:24:41.074Z,100.00
2023-12-04T15:27:45.146Z,100.00
2023-12-04T15:30:47.845Z,100.00
2023-12-04T15:33:50.157Z,100.00
2023-12-04T15:36:52.754Z,99.96
2023-12-04T15:39:54.985Z,100.00
2023-12-04T15:42:57.904Z,100.00
2023-12-04T15:46:00.227Z,100.00
2023-12-04T15:49:02.887Z,100.00
2023-12-04T15:52:05.495Z,100.00
2023-12-04T15:55:12.293Z,99.61
2023-12-04T15:58:14.498Z,99.71
2023-12-04T16:01:16.985Z,100.00
2023-12-04T16:04:19.599Z,100.00
2023-12-04T16:07:21.829Z,100.00
2023-12-04T16:10:24.377Z,100.00
2023-12-04T16:13:26.791Z,100.00
2023-12-04T16:16:29.313Z,100.00
2023-12-04T16:19:34.539Z,100.00
2023-12-04T16:22:40.393Z,100.00
2023-12-04T16:25:42.652Z,100.00
2023-12-04T16:28:45.398Z,100.00
2023-12-04T16:31:48.118Z,100.00
2023-12-04T16:34:50.592Z,100.00
2023-12-04T16:37:52.943Z,100.00
